createdAt,value
2023-03-17T00:04:37.227Z,3.22
2023-03-17T00:09:42.723Z,3.16
2023-03-17T00:14:47.551Z,3.33
2023-03-17T00:19:51.793Z,3.45
2023-03-17T00:24:57.095Z,3.30
2023-03-17T00:30:01.236Z,3.18
2023-03-17T00:35:06.171Z,3.16
2023-03-17T00:40:17.431Z,3.14
2023-03-17T00:45:23.519Z,3.36
2023-03-17T00:50:29.733Z,3.23
2023-03-17T00:55:35.279Z,3.04
2023-03-17T01:00:39.909Z,3.22
2023-03-17T01:05:46.899Z,3.32
2023-03-17T01:10:52.185Z,3.30
2023-03-17T01:15:58.263Z,3.41
2023-03-17T01:21:02.283Z,3.48
2023-03-17T01:26:08.231Z,3.33
2023-03-17T01:31:12.895Z,3.46
2023-03-17T01:36:17.881Z,3.41
2023-03-17T01:41:23.427Z,3.38
2023-03-17T01:46:30.841Z,3.11
2023-03-17T01:51:39.946Z,2.91
2023-03-17T01:56:50.146Z,3.00
2023-03-17T02:01:58.819Z,3.06
2023-03-17T02:07:05.128Z,2.73
2023-03-17T02:12:12.262Z,2.78
2023-03-17T02:17:16.262Z,2.54
2023-03-17T02:22:22.072Z,2.74
2023-03-17T02:27:33.923Z,2.78
2023-03-17T02:32:38.707Z,2.89
2023-03-17T02:37:46.211Z,2.70
2023-03-17T02:42:51.452Z,2.69
2023-03-17T02:47:57.291Z,2.58
2023-03-17T02:53:02.950Z,2.76
2023-03-17T02:58:06.861Z,2.56
2023-03-17T03:03:10.847Z,2.94
2023-03-17T03:08:17.747Z,2.93
2023-03-17T03:13:21.962Z,2.78
2023-03-17T03:18:26.205Z,2.54
2023-03-17T03:23:32.100Z,2.34
2023-03-17T03:28:36.450Z,2.43
2023-03-17T03:33:40.620Z,2.41
2023-03-17T03:38:46.400Z,2.41
2023-03-17T03:43:50.531Z,2.56
2023-03-17T03:48:56.299Z,2.78
2023-03-17T03:54:02.507Z,2.77
2023-03-17T03:59:07.333Z,2.85
2023-03-17T04:04:11.275Z,2.79
2023-03-17T04:09:16.851Z,2.92
2023-03-17T04:14:21.191Z,2.89
2023-03-17T04:19:25.433Z,2.96
2023-03-17T04:24:30.921Z,2.67
2023-03-17T04:29:35.564Z,2.27
2023-03-17T04:34:40.969Z,2.43
2023-03-17T04:39:46.460Z,2.69
2023-03-17T04:44:50.817Z,2.92
2023-03-17T04:49:54.994Z,2.84
2023-03-17T04:55:00.487Z,2.88
2023-03-17T05:00:09.945Z,2.74
2023-03-17T05:05:14.207Z,2.69
2023-03-17T05:10:21.950Z,2.82
2023-03-17T05:15:26.425Z,2.99
2023-03-17T05:20:30.526Z,3.02
2023-03-17T05:25:38.737Z,3.16
2023-03-17T05:30:44.840Z,3.06
2023-03-17T05:35:48.945Z,2.99
2023-03-17T05:40:54.824Z,3.24
2023-03-17T05:45:59.293Z,3.15
2023-03-17T05:51:03.971Z,3.44
2023-03-17T05:56:10.015Z,3.75
2023-03-17T06:01:14.756Z,3.54
2023-03-17T06:06:19.025Z,3.92
2023-03-17T06:11:24.732Z,3.64
2023-03-17T06:16:30.877Z,3.87
2023-03-17T06:21:35.627Z,3.68
2023-03-17T06:26:42.625Z,3.81
2023-03-17T06:31:51.039Z,3.65
2023-03-17T06:36:55.015Z,3.39
2023-03-17T06:42:02.078Z,3.52
2023-03-17T06:47:06.310Z,3.73
2023-03-17T06:52:10.556Z,3.83
2023-03-17T06:57:16.967Z,3.89
2023-03-17T07:02:21.120Z,3.75
2023-03-17T07:07:25.320Z,3.68
2023-03-17T07:12:30.702Z,3.86
2023-03-17T07:17:35.165Z,3.92
2023-03-17T07:22:39.388Z,3.94
2023-03-17T07:27:44.767Z,4.10
2023-03-17T07:32:48.972Z,4.34
2023-03-17T07:37:53.301Z,4.62
2023-03-17T07:42:58.864Z,4.95
2023-03-17T07:48:05.167Z,5.21
2023-03-17T07:53:09.677Z,5.06
2023-03-17T07:58:15.991Z,5.48
2023-03-17T08:03:20.523Z,5.60
2023-03-17T08:08:25.581Z,5.30
2023-03-17T08:13:31.179Z,5.39
2023-03-17T08:18:35.351Z,5.53
2023-03-17T08:23:40.562Z,5.68
2023-03-17T08:28:46.351Z,5.35
2023-03-17T08:33:52.785Z,5.47
2023-03-17T08:38:57.221Z,5.61
2023-03-17T08:44:03.861Z,5.68
2023-03-17T08:49:08.474Z,5.89
2023-03-17T08:54:13.146Z,5.75
2023-03-17T08:59:18.591Z,5.89
2023-03-17T09:04:23.872Z,6.15
2023-03-17T09:09:28.229Z,6.14
2023-03-17T09:14:42.917Z,6.30
2023-03-17T09:19:48.260Z,6.78
2023-03-17T09:24:53.251Z,7.85
2023-03-17T09:29:58.907Z,8.98
2023-03-17T09:35:04.003Z,9.08
2023-03-17T09:40:09.607Z,9.20
2023-03-17T09:45:24.150Z,9.25
2023-03-17T09:50:30.505Z,8.79
2023-03-17T09:55:38.271Z,8.39
2023-03-17T10:00:45.239Z,8.36
2023-03-17T10:05:49.296Z,8.81
2023-03-17T10:10:59.538Z,8.41
2023-03-17T10:16:09.868Z,8.64
2023-03-17T10:21:19.275Z,8.18
2023-03-17T10:26:28.098Z,7.67
2023-03-17T10:31:35.605Z,8.06
2023-03-17T10:36:45.798Z,8.20
2023-03-17T10:41:57.066Z,7.87
2023-03-17T10:47:02.567Z,7.64
2023-03-17T10:52:09.213Z,8.08
2023-03-17T10:57:15.476Z,8.08
2023-03-17T11:02:24.784Z,7.96
2023-03-17T11:07:32.661Z,7.86
2023-03-17T11:12:40.956Z,8.02
2023-03-17T11:17:56.417Z,8.09
2023-03-17T11:23:07.578Z,8.01
2023-03-17T11:28:35.142Z,8.35
2023-03-17T11:33:49.779Z,8.49
2023-03-17T11:39:00.326Z,8.54
2023-03-17T11:44:34.152Z,8.71
2023-03-17T11:49:40.988Z,8.66
2023-03-17T11:54:54.582Z,8.78
2023-03-17T12:00:05.133Z,8.77
2023-03-17T12:05:23.184Z,8.78
2023-03-17T12:10:34.571Z,8.92
2023-03-17T12:15:45.926Z,9.04
2023-03-17T12:20:56.956Z,8.73
2023-03-17T12:26:07.992Z,8.75
2023-03-17T12:31:15.275Z,8.59
2023-03-17T12:36:22.424Z,8.53
2023-03-17T12:41:38.339Z,8.66
2023-03-17T12:47:02.472Z,8.44
2023-03-17T12:52:28.316Z,8.26
2023-03-17T12:57:41.126Z,8.06
2023-03-17T13:02:47.957Z,8.07
2023-03-17T13:07:57.701Z,7.71
2023-03-17T13:13:37.885Z,8.08
2023-03-17T13:18:53.413Z,8.27
2023-03-17T13:24:36.227Z,8.20
2023-03-17T13:29:43.992Z,8.42
2023-03-17T13:34:52.901Z,9.30
2023-03-17T13:40:17.770Z,9.31
2023-03-17T13:45:33.408Z,9.49
2023-03-17T13:50:41.285Z,9.84
2023-03-17T13:56:12.069Z,9.37
2023-03-17T14:01:16.760Z,9.10
2023-03-17T14:06:24.394Z,9.05
2023-03-17T14:11:36.628Z,8.36
2023-03-17T14:16:46.865Z,8.24
2023-03-17T14:21:50.910Z,8.09
2023-03-17T14:26:57.003Z,7.98
2023-03-17T14:32:06.154Z,8.27
2023-03-17T14:37:12.890Z,8.48
2023-03-17T14:42:21.156Z,8.59
2023-03-17T14:47:27.348Z,9.08
2023-03-17T14:52:35.958Z,9.55
2023-03-17T14:57:41.617Z,9.08
2023-03-17T15:02:56.597Z,9.18
2023-03-17T15:08:02.786Z,8.14
2023-03-17T15:13:13.537Z,7.68
2023-03-17T15:18:21.259Z,7.67
2023-03-17T15:23:42.382Z,7.84
2023-03-17T15:28:48.286Z,8.08
2023-03-17T15:33:53.039Z,8.16
2023-03-17T15:38:57.498Z,8.06
2023-03-17T15:44:05.159Z,7.74
2023-03-17T15:49:11.649Z,7.51
2023-03-17T15:54:17.902Z,7.34
2023-03-17T15:59:23.646Z,7.22
2023-03-17T16:04:27.820Z,7.08
2023-03-17T16:09:34.338Z,7.02
2023-03-17T16:14:40.244Z,7.02
2023-03-17T16:19:45.061Z,6.69
2023-03-17T16:24:49.516Z,6.64
2023-03-17T16:29:54.921Z,6.47
2023-03-17T16:34:58.957Z,6.46
2023-03-17T16:40:03.047Z,6.51
2023-03-17T16:45:21.661Z,5.79
2023-03-17T16:50:29.659Z,5.83
2023-03-17T16:55:34.481Z,5.27
2023-03-17T17:00:41.047Z,5.39
2023-03-17T17:05:48.458Z,5.02
2023-03-17T17:10:52.933Z,4.31
2023-03-17T17:15:58.575Z,4.47
2023-03-17T17:21:03.896Z,4.39
2023-03-17T17:26:08.014Z,4.07
2023-03-17T17:31:13.684Z,4.37
2023-03-17T17:36:18.674Z,4.00
2023-03-17T17:41:22.889Z,4.04
2023-03-17T17:46:28.745Z,4.13
2023-03-17T17:51:33.360Z,3.83
2023-03-17T17:56:40.249Z,3.74
2023-03-17T18:01:46.102Z,3.94
2023-03-17T18:06:50.473Z,3.58
2023-03-17T18:11:54.910Z,3.29
2023-03-17T18:17:00.786Z,2.44
2023-03-17T18:22:05.190Z,2.42
2023-03-17T18:27:09.865Z,2.30
2023-03-17T18:32:15.434Z,2.24
2023-03-17T18:37:20.196Z,2.09
2023-03-17T18:42:25.067Z,1.86
2023-03-17T18:47:30.598Z,1.73
2023-03-17T18:52:35.849Z,1.94
2023-03-17T18:57:45.106Z,2.07
2023-03-17T19:02:50.876Z,1.80
2023-03-17T19:07:55.457Z,1.36
2023-03-17T19:13:00.024Z,0.94
2023-03-17T19:18:05.702Z,0.88
2023-03-17T19:23:10.219Z,0.87
2023-03-17T19:28:14.674Z,1.06
2023-03-17T19:33:20.648Z,1.34
2023-03-17T19:38:25.291Z,1.46
2023-03-17T19:43:40.292Z,1.48
2023-03-17T19:48:47.353Z,1.39
2023-03-17T19:53:51.545Z,1.39
2023-03-17T19:58:56.872Z,1.01
2023-03-17T20:04:02.711Z,0.99
2023-03-17T20:09:09.067Z,0.88
2023-03-17T20:14:15.729Z,0.49
2023-03-17T20:19:24.522Z,0.78
2023-03-17T20:24:31.883Z,1.03
2023-03-17T20:29:36.070Z,0.91
2023-03-17T20:34:44.289Z,0.85
2023-03-17T20:39:48.470Z,1.12
2023-03-17T20:44:53.315Z,1.22
2023-03-17T20:49:59.682Z,1.18
2023-03-17T20:55:05.979Z,1.21
2023-03-17T21:00:16.573Z,1.03
2023-03-17T21:05:23.959Z,0.58
2023-03-17T21:10:29.808Z,0.21
2023-03-17T21:15:33.860Z,0.02
2023-03-17T21:20:39.498Z,-0.07
2023-03-17T21:25:44.011Z,-0.18
2023-03-17T21:30:51.619Z,-0.22
2023-03-17T21:35:59.052Z,-0.18
2023-03-17T21:41:22.477Z,0.02
2023-03-17T21:46:31.902Z,0.06
2023-03-17T21:51:37.546Z,0.17
2023-03-17T21:56:41.778Z,0.24
2023-03-17T22:01:46.332Z,0.19
2023-03-17T22:06:52.464Z,0.29
2023-03-17T22:11:56.758Z,0.32
2023-03-17T22:17:01.838Z,0.32
2023-03-17T22:22:08.591Z,0.41
2023-03-17T22:27:12.692Z,0.39
2023-03-17T22:32:16.687Z,0.40
2023-03-17T22:37:22.086Z,0.57
2023-03-17T22:42:26.533Z,0.29
2023-03-17T22:47:30.885Z,0.08
2023-03-17T22:52:37.963Z,0.23
2023-03-17T22:57:42.106Z,-0.05
2023-03-17T23:02:47.423Z,-0.06
2023-03-17T23:07:52.951Z,0.16
2023-03-17T23:12:57.039Z,0.07
2023-03-17T23:18:01.797Z,-0.11
2023-03-17T23:23:08.493Z,-0.28
2023-03-17T23:28:12.964Z,-0.12
2023-03-17T23:33:21.188Z,0.09
2023-03-17T23:38:26.872Z,-0.44
2023-03-17T23:43:31.061Z,-0.88
2023-03-17T23:48:35.623Z,-0.75
2023-03-17T23:53:41.850Z,-0.69
2023-03-17T23:58:45.967Z,-0.78
